Date,TemperatureHighF,TemperatureAvgF,TemperatureLowF,DewpointHighF,DewpointAvgF,DewpointLowF,HumidityHigh,HumidityAvg,HumidityLow,PressureMaxIn,PressureMinIn,WindSpeedMaxMPH,WindSpeedAvgMPH,GustSpeedMaxMPH,PrecipitationSumIn
2013-1-1,82,67,54,64,38,14,61,37,18,30.19,30.01,18,1,18,0.00
2013-1-2,81,66,56,63,30,14,54,28,15,30.07,29.96,13,1,13,0.00
2013-1-3,92,69,57,70,34,16,60,29,14,30.11,29.99,15,1,15,0.03
2013-1-4,74,66,61,43,24,17,33,20,16,30.23,30.09,10,1,10,0.04
2013-1-5,78,67,59,60,33,16,53,30,17,30.25,30.14,15,2,15,0.00
2013-1-6,86,71,62,68,35,19,56,29,16,30.17,30.02,11,1,11,0.01
2013-1-7,78,69,63,57,29,19,50,24,16,30.16,30.05,12,2,12,0.02
2013-1-8,85,71,61,66,33,18,55,27,14,30.18,30.07,13,2,13,0.01
2013-1-9,87,75,67,68,40,18,59,32,13,30.25,30.14,15,3,15,0.01
2013-1-10,86,72,62,66,39,15,60,34,14,30.27,30.15,22,2,22,0.00
2013-1-11,86,70,60,67,36,15,58,32,14,30.24,30.10,19,2,19,0.01
2013-1-12,86,72,64,67,45,17,89,44,15,30.16,30.04,15,2,15,0.00
2013-1-13,85,72,61,68,64,60,97,78,47,30.11,30.03,15,2,15,0.01
2013-1-14,84,70,59,66,61,57,97,76,48,30.16,30.08,12,1,12,0.01
2013-1-15,85,70,57,68,62,56,98,79,50,30.12,30.02,12,1,12,0.00
2013-1-16,85,70,58,68,62,57,98,78,50,30.08,29.98,12,1,12,0.01
2013-1-17,83,68,58,71,61,49,99,80,53,30.11,29.95,25,4,25,0.00
2013-1-18,69,58,45,56,48,37,93,72,56,30.27,30.09,16,3,16,0.00
2013-1-19,76,66,57,65,61,55,97,86,62,30.22,30.08,12,2,12,0.00
2013-1-20,80,69,63,68,64,62,97,84,59,30.14,29.99,11,1,13,0.00
2013-1-21,80,68,61,68,63,59,96,84,61,30.07,29.96,14,1,14,0.00
2013-1-22,71,62,56,59,51,39,91,69,48,30.24,30.02,24,3,24,0.00
2013-1-23,76,61,51,50,44,39,77,56,28,30.32,30.21,12,2,14,0.00
2013-1-24,76,59,46,49,44,35,92,63,23,30.30,30.19,13,1,13,0.00
2013-1-25,80,61,45,54,49,43,97,68,36,30.29,30.15,10,1,10,0.00
2013-1-26,80,61,46,51,48,44,94,66,29,30.26,30.14,11,1,11,0.00
2013-1-27,81,65,49,61,54,47,95,70,40,30.27,30.18,13,3,13,0.00
2013-1-28,86,71,60,64,60,56,94,71,43,30.29,30.17,18,3,18,0.00
2013-1-29,88,72,60,68,63,59,98,77,46,30.22,30.07,18,2,18,0.00
2013-1-30,86,72,63,68,64,61,95,78,45,30.09,29.94,24,3,24,0.01
2013-1-31,72,62,46,67,53,36,96,76,42,30.21,29.91,20,3,20,0.16
2013-2-1,71,55,40,46,38,32,87,56,30,30.30,30.19,16,2,16,0.00
2013-2-2,77,59,43,51,44,34,81,60,35,30.26,30.10,13,2,13,0.00
2013-2-3,74,59,45,52,42,27,88,60,19,30.20,30.06,15,2,16,0.00
2013-2-4,77,58,41,51,42,24,98,64,17,30.14,30.00,11,1,11,0.01
2013-2-5,83,64,45,56,50,42,92,65,34,30.07,29.97,13,1,13,0.00
2013-2-6,87,70,54,63,58,51,92,68,39,30.10,29.99,8,1,9,0.00
2013-2-7,86,72,59,65,61,57,97,73,42,30.05,29.90,16,2,16,0.00
2013-2-8,87,73,60,69,61,49,93,70,30,30.04,29.87,23,2,23,0.00
2013-2-9,81,66,54,62,58,53,97,77,46,30.15,30.02,15,2,15,0.01
2013-2-10,82,69,58,64,60,57,95,76,46,30.22,30.11,22,3,22,0.00
2013-2-11,86,71,58,66,62,57,97,76,47,30.18,30.05,15,1,18,0.01
2013-2-12,86,72,59,70,64,58,98,80,48,30.10,29.93,19,2,19,0.00
2013-2-13,87,75,66,72,69,60,98,83,54,29.98,29.88,22,3,22,0.01
2013-2-14,73,63,59,71,61,57,98,94,78,30.03,29.86,23,2,23,2.44
2013-2-15,68,62,59,63,60,57,98,93,82,30.04,29.93,7,0,7,0.01
2013-2-16,70,61,50,61,52,45,97,76,49,30.09,29.89,28,4,28,0.01
2013-2-17,58,48,40,45,29,21,83,49,24,30.32,30.08,19,3,19,0.00
2013-2-18,74,54,36,49,40,26,88,61,37,30.31,30.19,19,2,19,0.00
2013-2-19,82,64,48,62,56,47,98,77,46,30.19,30.06,18,1,18,0.00
2013-2-20,84,68,54,65,57,53,100,73,38,30.10,29.97,12,0,12,0.00
2013-2-21,87,71,60,68,63,59,97,77,45,30.08,29.97,11,1,11,0.00
2013-2-22,89,73,60,71,65,59,98,80,46,30.07,29.96,15,1,15,0.01
2013-2-23,88,75,66,73,69,65,98,83,53,30.01,29.89,20,2,20,0.01
2013-2-24,89,76,68,72,68,60,98,81,40,29.98,29.88,16,1,16,0.00
2013-2-25,87,74,64,73,67,63,98,81,52,29.91,29.77,19,2,19,0.01
2013-2-26,87,75,66,73,70,65,95,84,55,29.89,29.74,29,3,29,0.34
2013-2-27,77,66,61,65,62,60,98,88,62,29.97,29.85,10,1,10,0.12
2013-2-28,77,64,58,60,55,51,91,76,46,30.02,29.89,13,1,13,0.00
2013-3-1,65,60,56,57,49,44,88,68,53,30.00,29.91,13,2,13,0.00
2013-3-2,60,55,49,45,42,38,78,62,48,30.05,29.97,19,2,19,0.00
2013-3-3,62,51,42,47,42,36,94,73,48,30.16,29.96,23,3,23,0.05
2013-3-4,50,44,41,44,39,35,90,80,75,30.17,30.12,10,1,10,0.00
2013-3-5,79,59,41,56,49,39,95,73,39,30.17,30.06,16,1,16,0.00
2013-3-6,74,60,48,63,49,35,98,70,30,30.12,29.99,25,3,25,0.03
2013-3-7,70,54,42,46,39,34,83,60,31,30.21,30.09,14,2,14,0.00
2013-3-8,79,59,40,50,44,33,95,64,21,30.21,30.08,14,1,14,0.00
2013-3-9,78,62,45,54,48,40,97,64,28,30.19,30.09,13,1,13,0.00
2013-3-10,81,67,54,57,53,50,87,65,36,30.16,30.02,19,3,19,0.00
2013-3-11,82,69,58,63,58,54,94,71,45,30.09,29.90,19,2,20,0.00
2013-3-12,78,67,58,68,62,54,93,84,66,30.02,29.88,24,3,28,0.02
2013-3-13,78,62,50,54,44,36,94,59,24,30.16,30.00,16,3,16,0.00
2013-3-14,73,58,47,45,36,24,86,50,17,30.23,30.11,21,3,21,0.00
2013-3-15,76,57,40,44,38,27,94,56,21,30.27,30.12,23,2,23,0.00
2013-3-16,81,61,45,55,46,41,100,62,27,30.18,30.05,16,1,16,0.00
2013-3-17,82,65,49,60,54,47,94,72,45,30.12,29.99,13,1,13,0.00
2013-3-18,81,68,60,68,63,56,96,86,60,30.04,29.92,18,2,18,0.38
2013-3-19,85,71,64,68,65,62,96,82,50,29.99,29.82,21,1,21,0.01
2013-3-20,80,67,60,65,61,57,98,83,47,29.99,29.80,19,2,19,0.09
2013-3-21,76,64,52,62,50,33,96,65,24,29.95,29.83,15,2,15,0.01
2013-3-22,82,65,48,69,56,39,94,73,53,29.97,29.86,12,1,12,0.02
2013-3-23,88,76,68,75,68,64,98,79,49,29.96,29.79,23,3,23,1.36
2013-3-24,84,75,68,73,71,66,96,86,69,29.85,29.67,28,5,28,0.12
2013-3-25,78,69,56,73,55,34,96,66,27,30.02,29.74,18,4,18,0.00
2013-3-26,67,55,46,46,40,29,88,58,33,30.23,30.01,22,4,23,0.00
2013-3-27,67,53,40,44,36,31,83,58,28,30.29,30.17,14,2,14,0.00
2013-3-28,75,57,38,46,37,25,93,56,17,30.29,30.15,14,1,14,0.00
2013-3-29,78,61,43,48,43,38,93,57,26,30.30,30.16,14,2,14,0.00
2013-3-30,82,66,51,56,51,46,93,64,33,30.25,30.10,15,1,15,0.00
2013-3-31,85,71,54,62,58,52,94,67,40,30.18,30.00,12,2,15,0.00
2013-4-1,85,71,62,69,63,59,98,78,47,30.04,29.95,21,2,21,0.00
2013-4-2,90,74,64,67,64,61,98,75,40,30.08,29.97,11,1,11,0.00
2013-4-3,91,76,64,72,65,61,95,74,38,30.05,29.91,15,2,16,0.02
2013-4-4,73,66,64,68,64,62,97,93,83,30.02,29.85,25,2,25,1.21
2013-4-5,74,68,61,68,64,57,97,86,66,30.01,29.80,21,2,21,0.67
2013-4-6,81,67,57,62,58,54,92,73,47,30.08,29.94,15,2,15,0.00
2013-4-7,85,71,59,65,61,57,95,74,40,30.12,30.01,14,2,14,0.00
2013-4-8,87,74,61,64,60,55,92,64,36,30.11,30.01,12,1,14,0.00
2013-4-9,87,74,62,69,63,60,95,72,42,30.13,30.03,18,2,18,0.00
2013-4-10,91,74,64,72,68,62,96,81,46,30.09,29.94,22,2,22,0.42
2013-4-11,89,76,69,71,68,65,97,76,50,29.98,29.84,18,3,20,0.10
2013-4-12,90,79,73,72,68,65,87,71,45,29.92,29.85,19,3,19,0.06
2013-4-13,90,80,73,69,66,63,84,64,44,29.95,29.83,12,1,12,0.00
2013-4-14,92,79,68,73,67,63,89,70,46,29.95,29.82,14,2,14,0.38
2013-4-15,94,78,65,71,65,60,86,67,41,30.05,29.89,21,1,21,0.27
2013-4-16,92,78,68,70,66,64,90,70,43,30.11,30.00,19,2,19,0.01
2013-4-17,88,77,67,67,64,61,86,66,44,30.10,29.98,13,2,16,0.00
2013-4-18,91,79,69,68,65,61,79,63,44,30.04,29.91,15,1,15,0.00
2013-4-19,93,77,69,70,66,62,88,72,41,30.01,29.91,20,2,20,0.24
2013-4-20,87,75,68,72,67,63,91,77,52,30.10,29.94,18,1,18,2.81
2013-4-21,89,74,63,68,64,58,88,72,45,30.10,29.94,16,1,16,0.17
2013-4-22,81,73,67,69,65,62,88,76,61,30.06,29.92,15,1,15,0.27
2013-4-23,87,74,66,66,62,58,87,68,46,30.08,29.96,16,3,16,0.00
2013-4-24,89,75,60,64,60,56,88,63,36,30.12,30.02,13,1,13,0.01
2013-4-25,88,76,63,64,60,57,88,61,38,30.19,30.06,15,2,15,0.00
2013-4-26,86,74,60,63,60,56,87,63,42,30.21,30.12,19,2,19,0.00
2013-4-27,86,75,64,64,60,57,88,63,41,30.19,30.04,18,3,18,0.00
2013-4-28,88,76,65,64,60,58,81,60,40,30.09,29.93,20,4,20,0.00
2013-4-29,90,73,63,67,62,57,86,71,44,30.01,29.91,22,2,22,0.73
2013-4-30,88,73,66,72,66,62,91,81,53,29.97,29.89,18,1,18,1.49
2013-5-1,82,71,66,71,66,62,91,85,68,29.98,29.85,29,2,29,1.51
2013-5-2,74,68,65,68,65,62,92,88,75,29.94,29.79,10,0,10,0.29
2013-5-3,88,74,62,68,64,60,93,73,47,29.83,29.67,18,1,18,0.01
2013-5-4,85,74,66,67,64,61,88,70,52,29.80,29.67,25,3,25,0.01
2013-5-5,81,72,63,64,56,47,84,60,34,29.94,29.77,19,4,19,0.00
2013-5-6,82,69,56,63,57,51,89,67,47,30.00,29.91,15,2,15,0.00
2013-5-7,82,70,57,60,56,52,85,63,42,30.06,29.97,19,2,19,0.00
2013-5-8,85,71,57,61,56,51,92,63,34,30.12,30.03,14,1,14,0.00
2013-5-9,90,73,56,61,56,52,90,60,31,30.13,30.03,10,0,10,0.00
2013-5-10,93,77,63,70,64,58,86,64,44,30.11,29.96,15,1,15,0.00
2013-5-11,92,79,68,72,67,63,90,70,42,30.05,29.96,18,2,18,0.00
2013-5-12,90,80,70,72,68,65,91,71,50,30.03,29.90,21,2,21,0.01
2013-5-13,86,77,68,67,63,49,89,66,47,30.11,29.98,14,2,14,0.00
2013-5-14,86,73,61,58,54,49,74,53,35,30.17,30.07,16,3,16,0.00
2013-5-15,86,73,58,61,57,53,83,59,38,30.17,30.05,16,3,16,0.00
2013-5-16,88,76,62,61,59,56,85,59,35,30.10,29.98,14,2,14,0.00
2013-5-17,93,79,64,67,62,58,86,59,34,30.06,29.99,12,1,12,0.00
2013-5-18,95,80,68,71,65,59,90,63,32,30.08,29.97,14,1,14,0.00
2013-5-19,94,78,69,70,66,64,88,70,40,30.07,29.95,15,1,15,1.47
2013-5-20,92,76,69,73,67,63,90,76,43,30.05,29.94,20,1,20,0.01
2013-5-21,92,74,67,70,66,63,90,77,43,29.99,29.88,21,1,21,1.83
2013-5-22,92,77,66,72,67,64,93,74,46,29.94,29.85,19,1,19,0.01
2013-5-23,93,80,68,72,67,64,91,68,43,30.00,29.89,13,2,13,0.00
2013-5-24,93,81,71,70,66,60,88,64,37,30.06,29.94,20,1,20,0.00
2013-5-25,89,78,68,70,64,61,86,64,42,30.14,30.02,15,3,15,0.00
2013-5-26,88,76,64,66,62,59,86,63,39,30.17,30.07,16,3,16,0.00
2013-5-27,88,77,67,68,64,60,81,65,46,30.15,30.01,18,4,18,0.00
2013-5-28,89,78,72,71,68,66,84,72,51,30.09,29.99,21,4,21,0.00
2013-5-29,86,76,71,70,68,66,87,76,55,30.07,29.98,28,4,28,0.31
2013-5-30,86,78,70,74,68,66,87,74,58,30.04,29.95,22,5,22,0.11
2013-5-31,87,78,72,72,69,66,87,74,58,30.03,29.96,14,4,19,0.02
2013-6-1,91,77,72,72,69,66,86,77,50,30.01,29.92,19,1,19,3.83
2013-6-2,91,78,71,72,69,66,88,74,49,29.99,29.89,19,1,19,0.11
2013-6-3,85,78,72,71,69,67,85,74,58,29.99,29.89,12,1,12,0.00
2013-6-4,83,76,71,71,68,65,86,78,63,30.02,29.93,12,1,12,0.16
2013-6-5,79,77,75,72,70,69,87,81,74,29.99,29.84,20,2,20,0.36
2013-6-6,84,76,72,74,69,66,88,81,62,29.86,29.73,20,4,28,2.21
2013-6-7,87,79,74,73,70,66,89,75,57,29.97,29.79,15,1,15,0.20
2013-6-8,91,79,74,75,71,68,84,77,54,30.08,29.94,14,1,14,0.39
2013-6-9,94,82,74,73,70,67,89,69,44,30.08,29.97,16,1,16,0.01
2013-6-10,93,81,73,74,71,69,90,73,49,30.06,29.96,20,1,20,0.05
2013-6-11,95,80,72,75,70,64,90,75,45,30.06,29.95,18,0,18,0.77
2013-6-12,94,77,71,75,70,67,90,79,47,30.07,29.99,26,0,26,2.95
2013-6-13,94,77,69,73,69,66,93,77,43,30.03,29.91,23,0,23,0.14
2013-6-14,93,82,72,74,70,68,92,71,47,29.95,29.86,16,1,16,0.01
2013-6-15,94,82,72,73,70,66,90,69,43,30.02,29.91,10,0,10,0.28
2013-6-16,95,83,74,76,71,67,90,69,42,30.07,29.98,14,1,14,0.01
2013-6-17,96,84,74,74,71,66,89,67,38,30.06,29.95,15,1,15,0.02
2013-6-18,96,84,74,74,71,68,87,68,44,30.05,29.93,13,1,13,0.09
2013-6-19,95,79,73,76,71,68,92,77,48,30.03,29.93,16,1,16,1.65
2013-6-20,92,78,71,75,70,68,90,78,52,30.07,30.00,13,1,13,0.02
2013-6-21,93,79,71,74,70,65,91,74,47,30.09,30.01,24,1,24,0.21
2013-6-22,94,82,71,73,70,66,92,68,42,30.09,29.99,12,1,12,0.02
2013-6-23,92,81,73,74,70,67,88,72,52,30.11,30.03,14,1,14,0.01
2013-6-24,93,82,73,74,70,68,88,70,48,30.14,30.03,21,2,21,0.02
2013-6-25,94,81,72,73,70,68,87,70,44,30.11,29.99,16,1,16,0.00
2013-6-26,92,77,71,75,70,66,89,82,54,30.09,29.98,25,0,25,2.53
2013-6-27,94,77,70,76,70,64,93,80,46,30.03,29.93,22,0,22,1.94
2013-6-28,93,81,70,75,71,68,94,74,51,29.97,29.83,15,1,15,0.01
2013-6-29,92,83,75,74,71,69,87,69,49,29.90,29.80,18,2,18,0.00
2013-6-30,88,80,74,77,72,69,88,77,62,29.90,29.81,16,2,23,1.50
2013-7-1,89,75,71,76,70,66,92,84,61,30.00,29.88,39,1,39,2.77
2013-7-2,86,76,72,77,72,69,92,87,74,30.07,29.95,12,0,12,0.36
2013-7-3,92,78,72,77,72,69,94,83,56,30.11,30.01,20,2,20,0.20
2013-7-4,91,80,72,76,72,69,94,79,56,30.12,30.02,19,2,19,0.01
2013-7-5,90,79,73,76,72,68,91,80,60,30.11,30.02,21,1,21,0.14
2013-7-6,93,82,74,76,73,70,93,75,51,30.08,29.97,15,2,18,0.01
2013-7-7,93,83,74,76,73,70,91,73,53,30.09,29.98,23,3,23,0.01
2013-7-8,94,82,74,75,72,68,92,71,46,30.12,30.03,15,2,15,0.01
2013-7-9,90,79,72,75,71,68,92,79,56,30.13,30.03,10,1,15,1.51
2013-7-10,90,78,71,75,71,69,94,80,58,30.07,29.96,13,0,13,0.03
2013-7-11,90,79,73,76,72,69,95,80,57,30.01,29.91,13,0,13,0.20
2013-7-12,90,80,72,76,72,69,94,77,57,29.94,29.87,12,1,12,0.00
2013-7-13,88,76,72,77,72,69,94,86,62,29.98,29.89,14,1,14,0.32
2013-7-14,83,75,72,75,71,69,93,88,75,30.06,29.95,13,1,13,1.16
2013-7-15,89,78,70,75,71,68,94,81,58,30.07,29.98,11,1,12,0.09
2013-7-16,88,77,73,74,71,68,91,81,61,30.11,30.02,24,3,24,0.05
2013-7-17,86,78,74,74,72,67,95,81,63,30.11,30.01,21,2,21,0.01
2013-7-18,84,74,70,74,70,68,95,89,72,30.10,30.02,29,1,29,1.22
2013-7-19,92,79,70,77,72,68,95,81,55,30.11,30.00,13,2,13,0.02
2013-7-20,92,77,71,79,72,67,95,87,61,30.09,29.99,23,0,23,1.09
2013-7-21,92,80,73,79,74,70,96,83,57,30.12,30.01,11,0,11,0.01
2013-7-22,95,84,74,78,74,72,95,76,51,30.12,30.04,12,1,12,0.00
2013-7-23,95,84,75,77,74,69,94,74,48,30.09,29.96,13,1,13,0.00
2013-7-24,92,83,73,75,72,68,95,73,47,30.01,29.90,16,1,16,0.00
2013-7-25,92,83,75,77,74,72,90,74,60,30.00,29.89,15,1,15,0.00
2013-7-26,93,81,70,78,74,68,95,80,58,30.02,29.93,21,1,21,0.95
2013-7-27,94,80,73,79,74,69,94,83,55,29.99,29.91,15,1,18,1.15
2013-7-28,94,82,72,78,73,68,97,77,44,30.05,29.92,15,1,15,0.97
2013-7-29,96,80,72,78,73,70,96,81,46,30.12,30.00,16,0,19,0.01
2013-7-30,94,81,74,79,74,70,95,81,53,30.14,30.05,27,1,27,0.01
2013-7-31,94,81,75,78,74,71,95,81,54,30.10,29.97,19,1,19,0.29
2013-8-1,94,80,72,77,73,70,96,79,52,30.03,29.91,13,0,14,0.05
2013-8-2,95,81,72,76,72,70,95,77,48,30.04,29.91,22,1,22,0.11
2013-8-3,92,80,75,80,75,72,96,86,58,30.09,30.00,10,1,13,0.05
2013-8-4,93,82,76,79,76,74,95,82,56,30.08,29.99,14,1,14,0.01
2013-8-5,94,82,75,80,76,71,94,81,58,30.03,29.91,0,0,0,0.00
2013-8-6,92,80,75,79,75,72,96,85,60,29.96,29.88,0,0,0,0.36
2013-8-7,95,81,74,80,75,72,96,82,52,29.94,29.86,0,0,0,1.27
2013-8-8,94,81,74,79,74,72,96,81,52,29.99,29.89,0,0,0,0.04
2013-8-9,93,79,73,77,73,71,95,84,52,30.04,29.92,0,0,0,1.92
2013-8-10,95,83,73,78,73,71,95,75,48,30.09,30.00,0,0,0,0.01
2013-8-11,96,85,74,78,74,71,94,73,49,30.11,30.01,0,0,0,0.00
2013-8-12,95,83,74,76,72,65,94,71,40,30.10,29.97,0,0,0,0.00
2013-8-13,96,82,74,78,74,70,93,77,48,30.04,29.90,0,0,0,0.02
2013-8-14,96,83,73,77,73,70,95,75,46,30.00,29.88,0,0,0,0.01
2013-8-15,89,80,76,78,74,72,92,81,66,30.05,29.93,0,0,0,0.01
2013-8-16,98,84,75,79,75,70,92,75,46,30.03,29.92,0,0,0,0.03
2013-8-17,97,82,76,79,75,71,95,81,47,30.05,29.94,0,0,0,0.15
2013-8-18,95,82,76,79,75,73,94,80,53,30.07,29.95,0,0,0,0.02
2013-8-19,95,80,72,78,74,70,94,82,50,30.07,29.91,0,0,0,1.73
2013-8-20,92,80,72,78,74,71,96,83,58,30.04,29.96,0,0,0,0.03
2013-8-21,94,81,76,80,75,71,95,83,58,30.06,29.95,0,0,0,0.15
2013-8-22,95,80,74,80,75,71,94,84,56,30.04,29.92,0,0,0,0.59
2013-8-23,94,80,73,79,74,71,96,84,53,30.00,29.91,0,0,0,0.01
2013-8-24,96,83,75,79,74,71,95,77,47,30.06,29.96,0,0,0,0.02
2013-8-25,91,79,74,79,74,70,95,85,61,30.12,29.99,0,0,0,0.06
2013-8-26,91,79,72,78,74,70,94,85,58,30.09,29.97,0,0,0,0.14
2013-8-27,91,77,72,75,72,70,95,86,57,30.03,29.95,0,0,0,0.37
2013-8-28,91,79,72,76,72,69,95,82,52,30.02,29.94,0,0,0,0.38
2013-8-29,92,81,72,77,73,71,95,79,50,30.01,29.89,0,0,0,0.01
2013-8-30,93,81,72,79,73,70,95,77,52,29.98,29.88,0,0,0,0.00
2013-8-31,96,81,73,78,72,69,95,77,45,29.97,29.88,0,0,0,0.00
2013-9-1,96,79,72,78,73,70,94,83,49,29.98,29.90,0,0,0,0.02
2013-9-2,92,77,73,80,73,71,96,89,62,30.01,29.91,0,0,0,0.13
2013-9-3,92,81,71,78,73,70,97,80,59,30.01,29.91,0,0,0,0.01
2013-9-4,93,78,75,79,74,71,93,86,61,30.05,29.93,0,0,0,0.07
2013-9-5,95,81,74,80,75,71,96,83,50,30.06,29.96,0,0,0,0.18
2013-9-6,96,84,75,79,75,71,94,77,47,30.03,29.88,0,0,0,0.00
2013-9-7,92,78,72,78,73,70,95,86,55,29.98,29.88,0,0,0,2.00
2013-9-8,92,79,70,77,72,69,96,81,52,29.94,29.83,0,0,0,0.01
2013-9-9,92,81,73,77,73,71,95,80,53,29.98,29.88,0,0,0,0.03
2013-9-10,92,81,73,77,73,70,94,78,57,30.02,29.94,0,0,0,0.01
2013-9-11,90,80,74,77,73,71,93,81,63,30.02,29.94,0,0,0,0.00
2013-9-12,92,78,73,78,73,71,94,85,58,30.00,29.85,0,0,0,0.28
2013-9-13,93,80,71,76,73,70,96,81,53,29.89,29.78,0,0,0,0.01
2013-9-14,94,82,72,76,73,71,96,75,50,29.95,29.81,0,0,0,0.00
2013-9-15,94,79,75,78,74,70,94,84,57,30.03,29.91,0,0,0,0.06
2013-9-16,89,76,73,79,73,70,95,90,68,30.04,29.93,0,0,0,0.53
2013-9-17,87,76,73,78,73,71,96,90,70,30.00,29.90,0,0,0,0.39
2013-9-18,91,78,73,78,73,71,96,87,61,30.00,29.91,0,0,0,0.77
2013-9-19,91,78,71,78,74,70,96,86,60,30.00,29.91,0,0,0,0.51
2013-9-20,90,80,72,74,71,68,94,75,51,29.99,29.87,0,0,0,0.00
2013-9-21,92,80,69,74,71,68,94,76,49,29.92,29.74,0,0,0,0.00
2013-9-22,76,75,75,72,71,71,89,88,87,29.80,29.78,0,0,0,0.00
2013-9-23,84,78,74,78,75,72,95,91,79,29.95,29.82,0,0,0,2.53
2013-9-24,86,76,72,80,73,70,96,93,75,29.95,29.87,0,0,0,1.69
2013-9-25,75,73,72,73,72,71,96,96,95,29.88,29.81,0,0,0,0.01
2013-9-26,90,81,73,81,76,72,97,86,61,29.85,29.78,0,0,0,0.45
2013-9-27,87,79,72,74,71,66,93,78,53,29.92,29.82,0,0,0,0.01
2013-9-28,91,79,71,75,71,68,93,78,54,29.95,29.87,0,0,0,0.00
2013-9-29,91,80,70,74,69,64,94,74,47,29.95,29.85,0,0,0,0.01
2013-9-30,93,80,69,74,70,66,95,75,46,29.94,29.86,0,0,0,0.00
2013-10-1,92,80,72,76,72,69,94,77,49,30.02,29.91,0,0,0,0.01
2013-10-2,91,78,72,75,71,69,92,80,57,30.02,29.92,0,0,0,0.00
2013-10-3,90,78,73,77,73,70,95,84,62,30.03,29.92,0,0,0,1.07
2013-10-4,92,80,72,76,71,64,95,77,48,30.04,29.95,0,0,0,0.01
2013-10-5,91,80,70,73,70,67,93,75,47,30.02,29.90,0,0,0,0.00
2013-10-6,93,80,70,76,71,67,95,77,48,29.95,29.83,0,0,0,0.00
2013-10-7,88,79,73,77,74,70,93,83,66,29.87,29.77,0,0,0,0.05
2013-10-8,90,79,71,75,71,68,95,78,55,29.91,29.81,0,0,0,0.01
2013-10-9,87,77,72,74,71,68,93,81,62,30.00,29.89,0,0,0,0.00
2013-10-10,90,77,67,73,68,65,93,77,50,30.02,29.92,0,0,0,0.00
2013-10-11,90,76,64,72,66,61,95,72,40,30.01,29.91,0,0,0,0.01
2013-10-12,89,76,65,70,66,63,94,74,48,30.02,29.93,0,0,0,0.00
2013-10-13,87,77,68,71,66,62,93,70,47,30.04,29.94,0,0,0,0.00
2013-10-14,88,77,66,69,65,62,91,69,43,30.01,29.88,0,0,0,0.00
2013-10-15,89,77,68,71,66,63,93,71,45,29.96,29.85,0,0,0,0.00
2013-10-16,90,77,66,73,68,64,95,76,46,29.94,29.85,0,0,0,0.00
2013-10-17,91,78,68,73,69,65,95,75,49,29.96,29.85,0,0,0,0.00
2013-10-18,76,73,69,70,69,67,92,87,82,29.91,29.88,0,0,0,0.00
2013-10-19,94,82,71,76,73,69,93,76,52,29.94,29.83,0,0,0,0.00
2013-10-20,86,76,72,77,73,71,95,91,71,29.93,29.85,0,0,0,0.00
2013-10-21,94,79,72,77,73,70,95,83,56,29.97,29.88,0,0,0,0.18
2013-10-22,91,79,72,77,73,70,95,84,55,29.94,29.81,0,0,0,0.01
2013-10-23,83,76,69,75,69,57,93,80,57,29.97,29.80,0,0,0,0.14
2013-10-24,76,70,66,64,59,54,82,69,61,30.11,29.95,0,0,0,0.00
2013-10-25,81,70,62,65,61,58,88,74,54,30.18,30.09,0,0,0,0.00
2013-10-26,85,70,61,65,59,54,88,69,42,30.16,30.04,0,0,0,0.00
2013-10-27,85,70,58,64,58,53,90,69,34,30.08,30.00,0,0,0,0.00
2013-10-28,87,72,61,66,62,58,92,72,45,30.14,30.05,0,0,0,0.00
2013-10-29,88,74,65,69,65,61,88,74,51,30.17,30.06,0,0,0,0.00
2013-10-30,88,75,66,69,65,61,92,74,43,30.18,30.05,0,0,0,0.00
2013-10-31,90,75,66,72,66,63,92,77,47,30.09,29.95,0,0,0,0.01
2013-11-1,90,76,66,74,68,63,95,78,47,30.00,29.86,0,0,0,0.00
2013-11-2,86,74,69,74,68,62,96,83,63,29.95,29.81,0,0,0,0.01
2013-11-3,80,70,62,62,54,46,88,61,33,30.05,29.92,0,0,0,0.00
2013-11-4,82,70,58,64,59,52,84,70,50,30.09,30.01,0,0,0,0.00
2013-11-5,86,75,67,71,67,63,89,78,58,30.07,30.00,0,0,0,0.00
2013-11-6,88,77,69,71,68,65,88,74,54,30.05,29.95,0,0,0,0.00
2013-11-7,86,74,66,72,67,64,94,79,55,30.02,29.91,0,0,0,0.00
2013-11-8,84,72,64,70,65,62,93,81,62,30.02,29.95,0,0,0,0.01
2013-11-9,80,73,67,71,67,63,89,83,71,30.10,30.01,0,0,0,0.00
2013-11-10,86,76,70,72,68,65,90,76,55,30.12,30.01,0,0,0,0.00
2013-11-11,88,76,67,70,66,64,92,74,47,30.11,30.00,0,0,0,0.00
2013-11-12,86,75,65,70,66,63,94,76,52,30.08,29.95,0,0,0,0.00
2013-11-13,72,67,60,67,58,50,88,73,64,30.22,30.00,0,0,0,0.01
2013-11-14,80,67,57,60,56,50,83,69,45,30.23,30.11,0,0,0,0.00
2013-11-15,82,72,63,69,63,57,85,75,62,30.13,29.99,0,0,0,0.00
2013-11-16,78,72,69,72,67,65,93,83,70,30.07,29.99,0,0,0,0.26
2013-11-17,90,77,68,72,68,65,94,76,50,30.05,29.95,0,0,0,0.00
2013-11-18,91,76,65,73,68,63,95,77,50,30.01,29.89,0,0,0,0.00
2013-11-19,87,75,68,73,70,66,94,85,59,29.93,29.83,0,0,0,0.21
2013-11-20,88,75,66,73,68,64,96,81,51,30.05,29.91,0,0,0,0.01
2013-11-21,88,76,71,74,70,68,93,83,57,30.13,30.02,0,0,0,0.56
2013-11-22,84,75,68,72,68,64,93,80,59,30.13,30.04,0,0,0,0.01
2013-11-23,86,74,65,71,67,62,90,79,58,30.08,29.94,0,0,0,0.00
2013-11-24,78,70,64,68,64,59,94,83,67,30.15,29.98,0,0,0,0.00
2013-11-25,79,70,64,65,62,58,86,76,58,30.17,30.01,0,0,0,0.00
2013-11-26,86,75,69,74,70,64,94,84,61,30.01,29.78,0,0,0,0.35
2013-11-27,76,68,52,70,61,47,94,78,53,30.15,29.75,0,0,0,0.30
2013-11-28,70,55,40,55,47,36,89,76,54,30.27,30.14,18,2,18,0.00
2013-11-29,77,64,53,61,56,50,91,77,56,30.28,30.17,22,4,22,0.00
2013-11-30,77,64,56,66,59,53,94,85,69,30.24,30.11,20,3,20,0.00
2013-12-1,77,66,60,67,62,58,96,89,68,30.13,29.96,13,2,13,0.00
2013-12-2,76,66,59,65,61,57,96,87,65,29.95,29.81,8,1,8,0.01
2013-12-3,82,69,63,67,62,60,93,81,53,29.97,29.88,14,0,14,0.01
2013-12-4,84,71,62,70,64,60,96,82,58,30.06,29.96,10,0,10,0.00
2013-12-5,85,73,62,71,65,60,96,80,54,30.14,30.04,14,1,14,0.01
2013-12-6,88,74,64,73,66,62,96,79,52,30.16,30.05,16,1,16,0.01
2013-12-7,86,72,60,70,65,58,96,80,55,30.20,30.10,11,0,11,0.00
2013-12-8,87,74,65,71,66,62,95,78,50,30.18,30.06,13,1,13,0.01
2013-12-9,89,74,66,72,66,62,95,77,48,30.16,30.05,14,1,14,0.02
2013-12-10,89,73,62,73,65,60,96,79,49,30.14,30.05,12,0,12,0.00
2013-12-11,86,73,64,72,66,62,94,80,57,30.20,30.10,12,1,12,0.01
2013-12-12,72,66,56,66,60,40,95,81,43,30.24,30.13,14,2,14,0.00
2013-12-13,80,65,52,63,56,46,89,75,56,30.22,30.07,18,2,18,0.00
2013-12-14,86,73,63,72,66,60,95,81,58,30.08,29.93,16,1,16,0.01
2013-12-15,80,73,66,73,69,59,95,88,76,30.07,29.90,12,0,12,0.32
2013-12-16,70,63,53,59,55,49,88,77,57,30.17,30.05,11,1,11,0.00
2013-12-17,80,61,48,63,54,44,91,78,50,30.20,30.08,11,1,11,0.00
2013-12-18,74,60,51,54,47,39,92,66,29,30.26,30.15,10,1,15,0.00
2013-12-19,80,63,49,61,54,45,92,73,46,30.23,30.11,14,1,14,0.00
2013-12-20,84,71,59,70,63,57,94,78,57,30.16,30.05,18,2,18,0.01
2013-12-21,88,74,65,72,67,62,94,80,55,30.11,29.99,15,2,15,0.01
2013-12-22,88,76,67,72,68,65,95,79,52,30.13,30.03,18,1,18,0.01
2013-12-23,88,75,68,74,69,66,96,83,55,30.16,30.07,16,1,16,0.01
2013-12-24,75,66,56,68,61,44,96,83,52,30.19,30.09,19,2,19,0.01
2013-12-25,76,65,56,65,57,47,83,75,66,30.17,30.07,12,3,16,0.00
2013-12-26,82,70,61,69,63,56,89,79,60,30.16,30.03,13,2,13,0.00
2013-12-27,82,71,63,70,65,60,92,81,64,30.19,30.06,13,3,13,0.00
2013-12-28,84,72,65,72,67,63,94,84,64,30.16,29.99,14,2,20,0.00
2013-12-29,80,74,69,74,70,65,95,88,76,30.01,29.89,20,2,20,0.12
2013-12-30,74,67,62,65,62,58,89,83,69,30.15,29.98,10,1,10,0.00
2013-12-31,75,66,61,61,56,48,90,72,43,30.24,30.11,11,2,18,0.00
2014-1-1,82,70,61,71,64,56,94,83,68,30.18,30.01,11,1,11,0.32
2014-1-2,84,72,64,73,68,62,96,86,62,30.02,29.86,21,2,21,0.26